sensor_id;sensor_type;location;lat;lon;timestamp;P1;durP1;ratioP1;P2;durP2;ratioP2
4078;SDS011;2054;47.858;11.156;2023-02-01T03:46:57;5.95;;;2.50;;
4078;SDS011;2054;47.858;11.156;2023-02-01T03:49:26;5.55;;;2.70;;
4078;SDS011;2054;47.858;11.156;2023-02-01T03:51:54;6.28;;;2.83;;
4078;SDS011;2054;47.858;11.156;2023-02-01T03:54:23;6.43;;;2.45;;
4078;SDS011;2054;47.858;11.156;2023-02-01T03:56:52;6.50;;;2.97;;
4078;SDS011;2054;47.858;11.156;2023-02-01T03:59:21;4.30;;;2.72;;
4078;SDS011;2054;47.858;11.156;2023-02-01T04:01:49;6.55;;;3.10;;
4078;SDS011;2054;47.858;11.156;2023-02-01T04:04:17;6.07;;;2.75;;
4078;SDS011;2054;47.858;11.156;2023-02-01T04:06:45;3.20;;;2.28;;
4078;SDS011;2054;47.858;11.156;2023-02-01T04:09:13;6.93;;;3.05;;
4078;SDS011;2054;47.858;11.156;2023-02-01T04:11:40;4.38;;;3.05;;
4078;SDS011;2054;47.858;11.156;2023-02-01T04:14:07;5.88;;;2.67;;
4078;SDS011;2054;47.858;11.156;2023-02-01T04:16:35;5.18;;;2.95;;
4078;SDS011;2054;47.858;11.156;2023-02-01T04:19:03;8.30;;;3.28;;
4078;SDS011;2054;47.858;11.156;2023-02-01T04:21:31;6.05;;;3.08;;
4078;SDS011;2054;47.858;11.156;2023-02-01T04:23:58;5.18;;;3.13;;
4078;SDS011;2054;47.858;11.156;2023-02-01T04:26:26;3.88;;;2.50;;
4078;SDS011;2054;47.858;11.156;2023-02-01T04:28:53;5.40;;;3.25;;
4078;SDS011;2054;47.858;11.156;2023-02-01T04:31:20;5.07;;;2.90;;
4078;SDS011;2054;47.858;11.156;2023-02-01T04:33:50;4.50;;;2.67;;
4078;SDS011;2054;47.858;11.156;2023-02-01T04:36:17;4.82;;;3.05;;
4078;SDS011;2054;47.858;11.156;2023-02-01T04:38:48;6.78;;;3.10;;
4078;SDS011;2054;47.858;11.156;2023-02-01T04:41:15;5.93;;;3.20;;
4078;SDS011;2054;47.858;11.156;2023-02-01T04:43:44;4.68;;;2.90;;
4078;SDS011;2054;47.858;11.156;2023-02-01T04:46:11;3.95;;;2.33;;
4078;SDS011;2054;47.858;11.156;2023-02-01T04:48:38;4.55;;;2.25;;
4078;SDS011;2054;47.858;11.156;2023-02-01T04:51:05;5.45;;;3.10;;
4078;SDS011;2054;47.858;11.156;2023-02-01T04:53:32;4.50;;;2.72;;
4078;SDS011;2054;47.858;11.156;2023-02-01T04:56:01;4.78;;;2.90;;
4078;SDS011;2054;47.858;11.156;2023-02-01T04:58:28;6.10;;;3.15;;
4078;SDS011;2054;47.858;11.156;2023-02-01T05:00:56;3.30;;;2.55;;
4078;SDS011;2054;47.858;11.156;2023-02-01T05:03:23;5.50;;;2.97;;
4078;SDS011;2054;47.858;11.156;2023-02-01T05:05:50;6.55;;;2.95;;
4078;SDS011;2054;47.858;11.156;2023-02-01T05:08:18;5.47;;;3.10;;
4078;SDS011;2054;47.858;11.156;2023-02-01T05:10:47;3.15;;;2.22;;
4078;SDS011;2054;47.858;11.156;2023-02-01T05:13:16;6.05;;;3.22;;
4078;SDS011;2054;47.858;11.156;2023-02-01T05:16:00;5.32;;;3.22;;
4078;SDS011;2054;47.858;11.156;2023-02-01T05:18:28;5.30;;;3.05;;
4078;SDS011;2054;47.858;11.156;2023-02-01T05:20:56;5.22;;;3.00;;
4078;SDS011;2054;47.858;11.156;2023-02-01T05:23:23;5.70;;;2.92;;
4078;SDS011;2054;47.858;11.156;2023-02-01T05:25:50;4.95;;;2.55;;
4078;SDS011;2054;47.858;11.156;2023-02-01T05:28:19;5.82;;;2.60;;
4078;SDS011;2054;47.858;11.156;2023-02-01T05:30:46;6.80;;;3.15;;
4078;SDS011;2054;47.858;11.156;2023-02-01T05:33:13;4.70;;;2.13;;
4078;SDS011;2054;47.858;11.156;2023-02-01T05:35:40;4.18;;;2.70;;
4078;SDS011;2054;47.858;11.156;2023-02-01T05:38:07;7.07;;;3.33;;
4078;SDS011;2054;47.858;11.156;2023-02-01T05:40:34;5.07;;;2.80;;
4078;SDS011;2054;47.858;11.156;2023-02-01T05:43:02;5.28;;;2.63;;
4078;SDS011;2054;47.858;11.156;2023-02-01T05:45:30;4.03;;;2.67;;
4078;SDS011;2054;47.858;11.156;2023-02-01T05:47:58;5.05;;;2.65;;
4078;SDS011;2054;47.858;11.156;2023-02-01T05:50:28;3.10;;;2.20;;
4078;SDS011;2054;47.858;11.156;2023-02-01T05:52:55;6.60;;;3.42;;
4078;SDS011;2054;47.858;11.156;2023-02-01T05:55:22;4.57;;;2.53;;
4078;SDS011;2054;47.858;11.156;2023-02-01T05:57:49;5.07;;;2.83;;
4078;SDS011;2054;47.858;11.156;2023-02-01T06:00:17;5.32;;;2.90;;
4078;SDS011;2054;47.858;11.156;2023-02-01T06:02:46;5.70;;;2.53;;
4078;SDS011;2054;47.858;11.156;2023-02-01T06:05:13;4.82;;;3.20;;
4078;SDS011;2054;47.858;11.156;2023-02-01T06:07:40;7.18;;;2.90;;
4078;SDS011;2054;47.858;11.156;2023-02-01T06:10:08;5.47;;;2.58;;
4078;SDS011;2054;47.858;11.156;2023-02-01T06:12:36;4.80;;;2.85;;
4078;SDS011;2054;47.858;11.156;2023-02-01T06:15:03;7.75;;;2.92;;
4078;SDS011;2054;47.858;11.156;2023-02-01T06:17:31;5.00;;;3.08;;
4078;SDS011;2054;47.858;11.156;2023-02-01T06:19:59;6.00;;;3.22;;
4078;SDS011;2054;47.858;11.156;2023-02-01T06:22:26;4.80;;;2.33;;
4078;SDS011;2054;47.858;11.156;2023-02-01T06:24:53;4.00;;;2.83;;
4078;SDS011;2054;47.858;11.156;2023-02-01T06:27:21;7.22;;;2.70;;
4078;SDS011;2054;47.858;11.156;2023-02-01T06:29:48;4.88;;;3.00;;
4078;SDS011;2054;47.858;11.156;2023-02-01T06:32:15;3.67;;;2.50;;
4078;SDS011;2054;47.858;11.156;2023-02-01T06:34:42;4.05;;;2.40;;
4078;SDS011;2054;47.858;11.156;2023-02-01T06:37:11;3.63;;;2.45;;
4078;SDS011;2054;47.858;11.156;2023-02-01T06:39:39;3.85;;;2.90;;
4078;SDS011;2054;47.858;11.156;2023-02-01T06:42:06;4.28;;;2.50;;
4078;SDS011;2054;47.858;11.156;2023-02-01T06:44:33;5.00;;;2.60;;
4078;SDS011;2054;47.858;11.156;2023-02-01T06:47:00;4.22;;;2.38;;
4078;SDS011;2054;47.858;11.156;2023-02-01T06:49:27;4.00;;;2.30;;
4078;SDS011;2054;47.858;11.156;2023-02-01T06:51:54;5.97;;;2.40;;
4078;SDS011;2054;47.858;11.156;2023-02-01T06:54:23;4.15;;;2.47;;
4078;SDS011;2054;47.858;11.156;2023-02-01T06:56:50;5.57;;;2.58;;
4078;SDS011;2054;47.858;11.156;2023-02-01T06:59:17;5.05;;;2.20;;
4078;SDS011;2054;47.858;11.156;2023-02-01T07:01:44;3.70;;;2.38;;
4078;SDS011;2054;47.858;11.156;2023-02-01T07:04:12;4.43;;;2.83;;
4078;SDS011;2054;47.858;11.156;2023-02-01T07:06:39;4.30;;;2.65;;
4078;SDS011;2054;47.858;11.156;2023-02-01T07:09:06;4.50;;;2.72;;
4078;SDS011;2054;47.858;11.156;2023-02-01T07:11:35;5.85;;;3.00;;
4078;SDS011;2054;47.858;11.156;2023-02-01T07:14:06;4.45;;;1.90;;
4078;SDS011;2054;47.858;11.156;2023-02-01T07:16:33;5.75;;;2.50;;
4078;SDS011;2054;47.858;11.156;2023-02-01T07:19:00;4.18;;;2.60;;
4078;SDS011;2054;47.858;11.156;2023-02-01T07:21:27;5.90;;;2.90;;
4078;SDS011;2054;47.858;11.156;2023-02-01T07:23:54;5.57;;;2.60;;
4078;SDS011;2054;47.858;11.156;2023-02-01T07:26:22;5.00;;;2.75;;
4078;SDS011;2054;47.858;11.156;2023-02-01T07:28:50;4.72;;;3.00;;
4078;SDS011;2054;47.858;11.156;2023-02-01T07:31:18;5.40;;;3.22;;
4078;SDS011;2054;47.858;11.156;2023-02-01T07:33:47;5.55;;;2.95;;
4078;SDS011;2054;47.858;11.156;2023-02-01T07:36:17;8.57;;;3.10;;
4078;SDS011;2054;47.858;11.156;2023-02-01T07:38:44;6.80;;;3.30;;
4078;SDS011;2054;47.858;11.156;2023-02-01T07:41:12;8.40;;;3.08;;
4078;SDS011;2054;47.858;11.156;2023-02-01T07:43:40;8.68;;;2.60;;
4078;SDS011;2054;47.858;11.156;2023-02-01T07:46:09;4.88;;;3.00;;
4078;SDS011;2054;47.858;11.156;2023-02-01T07:48:37;5.43;;;2.75;;
4078;SDS011;2054;47.858;11.156;2023-02-01T07:51:05;5.50;;;2.85;;
4078;SDS011;2054;47.858;11.156;2023-02-01T07:53:32;6.00;;;2.95;;
4078;SDS011;2054;47.858;11.156;2023-02-01T07:56:00;7.35;;;2.97;;
4078;SDS011;2054;47.858;11.156;2023-02-01T07:58:27;3.80;;;2.50;;
4078;SDS011;2054;47.858;11.156;2023-02-01T08:00:55;5.53;;;2.67;;
4078;SDS011;2054;47.858;11.156;2023-02-01T08:03:41;3.45;;;2.40;;
4078;SDS011;2054;47.858;11.156;2023-02-01T08:06:08;7.28;;;3.00;;
4078;SDS011;2054;47.858;11.156;2023-02-01T08:08:35;4.60;;;3.00;;
4078;SDS011;2054;47.858;11.156;2023-02-01T08:11:04;7.68;;;2.95;;
4078;SDS011;2054;47.858;11.156;2023-02-01T08:13:32;4.32;;;2.53;;
4078;SDS011;2054;47.858;11.156;2023-02-01T08:16:00;5.40;;;2.70;;
4078;SDS011;2054;47.858;11.156;2023-02-01T08:18:27;4.13;;;2.90;;
4078;SDS011;2054;47.858;11.156;2023-02-01T08:20:56;5.13;;;3.20;;
4078;SDS011;2054;47.858;11.156;2023-02-01T08:23:23;5.72;;;3.13;;
4078;SDS011;2054;47.858;11.156;2023-02-01T08:25:50;3.00;;;2.17;;
4078;SDS011;2054;47.858;11.156;2023-02-01T08:28:17;4.85;;;2.50;;
4078;SDS011;2054;47.858;11.156;2023-02-01T08:30:45;4.45;;;2.45;;
4078;SDS011;2054;47.858;11.156;2023-02-01T08:33:12;3.15;;;2.28;;
4078;SDS011;2054;47.858;11.156;2023-02-01T08:35:39;3.78;;;2.30;;
4078;SDS011;2054;47.858;11.156;2023-02-01T08:38:08;4.75;;;2.80;;
4078;SDS011;2054;47.858;11.156;2023-02-01T08:40:35;3.28;;;2.10;;
4078;SDS011;2054;47.858;11.156;2023-02-01T08:43:02;4.95;;;2.33;;
4078;SDS011;2054;47.858;11.156;2023-02-01T08:45:29;5.00;;;2.33;;
4078;SDS011;2054;47.858;11.156;2023-02-01T08:47:57;3.85;;;2.10;;
4078;SDS011;2054;47.858;11.156;2023-02-01T08:50:24;3.95;;;2.60;;
4078;SDS011;2054;47.858;11.156;2023-02-01T08:52:52;3.55;;;2.03;;
4078;SDS011;2054;47.858;11.156;2023-02-01T08:55:21;4.05;;;2.25;;
4078;SDS011;2054;47.858;11.156;2023-02-01T08:57:48;3.60;;;2.33;;
4078;SDS011;2054;47.858;11.156;2023-02-01T09:00:16;3.88;;;2.10;;
4078;SDS011;2054;47.858;11.156;2023-02-01T09:02:43;2.75;;;2.03;;
4078;SDS011;2054;47.858;11.156;2023-02-01T09:05:11;3.92;;;2.47;;
4078;SDS011;2054;47.858;11.156;2023-02-01T09:07:39;10.93;;;3.13;;
4078;SDS011;2054;47.858;11.156;2023-02-01T09:10:06;4.10;;;2.28;;
4078;SDS011;2054;47.858;11.156;2023-02-01T09:12:35;3.13;;;2.05;;
4078;SDS011;2054;47.858;11.156;2023-02-01T09:15:03;3.72;;;2.45;;
4078;SDS011;2054;47.858;11.156;2023-02-01T09:17:32;3.90;;;2.45;;
4078;SDS011;2054;47.858;11.156;2023-02-01T09:19:59;5.20;;;2.17;;
4078;SDS011;2054;47.858;11.156;2023-02-01T09:22:26;3.35;;;2.40;;
4078;SDS011;2054;47.858;11.156;2023-02-01T09:24:53;1.67;;;1.30;;
4078;SDS011;2054;47.858;11.156;2023-02-01T09:27:20;3.55;;;2.15;;
4078;SDS011;2054;47.858;11.156;2023-02-01T09:29:49;3.90;;;1.90;;
4078;SDS011;2054;47.858;11.156;2023-02-01T09:32:17;3.15;;;2.13;;
4078;SDS011;2054;47.858;11.156;2023-02-01T09:34:45;2.78;;;1.70;;
4078;SDS011;2054;47.858;11.156;2023-02-01T09:37:12;3.70;;;1.85;;
4078;SDS011;2054;47.858;11.156;2023-02-01T09:39:40;4.68;;;2.30;;
4078;SDS011;2054;47.858;11.156;2023-02-01T09:42:12;3.58;;;1.73;;
4078;SDS011;2054;47.858;11.156;2023-02-01T09:44:53;3.10;;;1.80;;
4078;SDS011;2054;47.858;11.156;2023-02-01T09:47:24;3.55;;;2.60;;
4078;SDS011;2054;47.858;11.156;2023-02-01T09:49:54;3.17;;;2.03;;
4078;SDS011;2054;47.858;11.156;2023-02-01T09:52:24;5.65;;;2.15;;
4078;SDS011;2054;47.858;11.156;2023-02-01T09:54:53;3.50;;;2.10;;
4078;SDS011;2054;47.858;11.156;2023-02-01T09:57:24;3.35;;;2.30;;
4078;SDS011;2054;47.858;11.156;2023-02-01T09:59:54;3.03;;;2.00;;
4078;SDS011;2054;47.858;11.156;2023-02-01T10:02:23;3.47;;;2.10;;
4078;SDS011;2054;47.858;11.156;2023-02-01T10:04:52;4.03;;;2.05;;
4078;SDS011;2054;47.858;11.156;2023-02-01T10:07:22;4.25;;;2.30;;
4078;SDS011;2054;47.858;11.156;2023-02-01T10:09:55;4.15;;;2.38;;
4078;SDS011;2054;47.858;11.156;2023-02-01T10:12:31;2.88;;;1.85;;
4078;SDS011;2054;47.858;11.156;2023-02-01T10:15:05;3.97;;;2.20;;
4078;SDS011;2054;47.858;11.156;2023-02-01T10:17:43;3.65;;;2.00;;
4078;SDS011;2054;47.858;11.156;2023-02-01T10:20:17;3.40;;;1.90;;
4078;SDS011;2054;47.858;11.156;2023-02-01T10:22:51;2.40;;;1.80;;
4078;SDS011;2054;47.858;11.156;2023-02-01T10:25:21;3.00;;;1.98;;
4078;SDS011;2054;47.858;11.156;2023-02-01T10:27:50;2.72;;;1.83;;
4078;SDS011;2054;47.858;11.156;2023-02-01T10:30:20;3.70;;;1.83;;
4078;SDS011;2054;47.858;11.156;2023-02-01T10:32:48;2.53;;;1.65;;
4078;SDS011;2054;47.858;11.156;2023-02-01T10:35:17;3.83;;;1.98;;
4078;SDS011;2054;47.858;11.156;2023-02-01T10:37:45;3.80;;;2.28;;
4078;SDS011;2054;47.858;11.156;2023-02-01T10:40:15;2.22;;;1.80;;
4078;SDS011;2054;47.858;11.156;2023-02-01T10:42:44;1.92;;;1.50;;
4078;SDS011;2054;47.858;11.156;2023-02-01T10:45:13;3.30;;;1.77;;
4078;SDS011;2054;47.858;11.156;2023-02-01T10:47:43;3.50;;;1.75;;
4078;SDS011;2054;47.858;11.156;2023-02-01T10:50:16;3.30;;;1.52;;
4078;SDS011;2054;47.858;11.156;2023-02-01T10:52:46;2.78;;;1.73;;
4078;SDS011;2054;47.858;11.156;2023-02-01T10:58:14;1.67;;;1.20;;
4078;SDS011;2054;47.858;11.156;2023-02-01T11:00:43;3.38;;;2.00;;
4078;SDS011;2054;47.858;11.156;2023-02-01T11:03:32;3.22;;;1.70;;
4078;SDS011;2054;47.858;11.156;2023-02-01T11:05:59;5.28;;;1.70;;
4078;SDS011;2054;47.858;11.156;2023-02-01T11:08:26;5.78;;;1.73;;
4078;SDS011;2054;47.858;11.156;2023-02-01T11:10:58;1.92;;;1.55;;
4078;SDS011;2054;47.858;11.156;2023-02-01T11:13:28;2.55;;;1.95;;
4078;SDS011;2054;47.858;11.156;2023-02-01T11:15:56;2.95;;;1.70;;
4078;SDS011;2054;47.858;11.156;2023-02-01T11:18:25;2.80;;;1.70;;
4078;SDS011;2054;47.858;11.156;2023-02-01T11:20:54;2.92;;;1.92;;
4078;SDS011;2054;47.858;11.156;2023-02-01T11:23:22;2.10;;;1.38;;
4078;SDS011;2054;47.858;11.156;2023-02-01T11:25:51;3.78;;;1.50;;
4078;SDS011;2054;47.858;11.156;2023-02-01T11:28:20;4.05;;;1.75;;
4078;SDS011;2054;47.858;11.156;2023-02-01T11:30:48;2.65;;;1.77;;
4078;SDS011;2054;47.858;11.156;2023-02-01T11:33:16;2.70;;;1.60;;
4078;SDS011;2054;47.858;11.156;2023-02-01T11:35:44;1.63;;;1.40;;
4078;SDS011;2054;47.858;11.156;2023-02-01T11:38:18;5.25;;;1.65;;
4078;SDS011;2054;47.858;11.156;2023-02-01T11:40:46;2.75;;;1.50;;
4078;SDS011;2054;47.858;11.156;2023-02-01T11:43:16;2.20;;;1.70;;
4078;SDS011;2054;47.858;11.156;2023-02-01T11:45:53;3.90;;;1.80;;
4078;SDS011;2054;47.858;11.156;2023-02-01T11:48:20;2.25;;;1.50;;
4078;SDS011;2054;47.858;11.156;2023-02-01T11:50:49;2.30;;;1.55;;
4078;SDS011;2054;47.858;11.156;2023-02-01T11:53:23;2.33;;;1.75;;
4078;SDS011;2054;47.858;11.156;2023-02-01T11:56:04;2.03;;;1.38;;
4078;SDS011;2054;47.858;11.156;2023-02-01T12:01:26;2.53;;;1.50;;
4078;SDS011;2054;47.858;11.156;2023-02-01T12:04:08;3.58;;;1.60;;
4078;SDS011;2054;47.858;11.156;2023-02-01T12:06:45;2.88;;;1.83;;
4078;SDS011;2054;47.858;11.156;2023-02-01T12:09:24;4.72;;;1.92;;
4078;SDS011;2054;47.858;11.156;2023-02-01T12:11:58;2.35;;;1.60;;
4078;SDS011;2054;47.858;11.156;2023-02-01T12:14:32;3.80;;;1.85;;
4078;SDS011;2054;47.858;11.156;2023-02-01T12:17:12;4.00;;;1.92;;
4078;SDS011;2054;47.858;11.156;2023-02-01T12:19:45;3.58;;;1.83;;
4078;SDS011;2054;47.858;11.156;2023-02-01T12:22:23;5.65;;;1.92;;
4078;SDS011;2054;47.858;11.156;2023-02-01T12:25:03;3.70;;;1.20;;
4078;SDS011;2054;47.858;11.156;2023-02-01T12:27:37;4.22;;;1.90;;
4078;SDS011;2054;47.858;11.156;2023-02-01T12:30:12;4.00;;;1.85;;
4078;SDS011;2054;47.858;11.156;2023-02-01T12:32:45;3.20;;;1.80;;
4078;SDS011;2054;47.858;11.156;2023-02-01T12:35:26;2.33;;;1.15;;
4078;SDS011;2054;47.858;11.156;2023-02-01T12:38:03;2.13;;;1.80;;
4078;SDS011;2054;47.858;11.156;2023-02-01T12:40:37;4.22;;;1.92;;
4078;SDS011;2054;47.858;11.156;2023-02-01T12:43:09;2.30;;;1.50;;
4078;SDS011;2054;47.858;11.156;2023-02-01T12:45:40;2.83;;;1.63;;
4078;SDS011;2054;47.858;11.156;2023-02-01T12:48:16;2.13;;;1.70;;
4078;SDS011;2054;47.858;11.156;2023-02-01T12:50:44;2.25;;;1.60;;
4078;SDS011;2054;47.858;11.156;2023-02-01T12:53:14;3.58;;;1.75;;
4078;SDS011;2054;47.858;11.156;2023-02-01T12:55:47;2.35;;;1.35;;
4078;SDS011;2054;47.858;11.156;2023-02-01T12:58:17;2.80;;;1.77;;
4078;SDS011;2054;47.858;11.156;2023-02-01T13:00:46;2.17;;;1.75;;
4078;SDS011;2054;47.858;11.156;2023-02-01T13:03:18;2.67;;;1.48;;
4078;SDS011;2054;47.858;11.156;2023-02-01T13:05:50;3.10;;;1.58;;
4078;SDS011;2054;47.858;11.156;2023-02-01T13:08:20;7.03;;;1.63;;
4078;SDS011;2054;47.858;11.156;2023-02-01T13:10:51;2.15;;;1.70;;
4078;SDS011;2054;47.858;11.156;2023-02-01T13:13:22;1.95;;;1.58;;
4078;SDS011;2054;47.858;11.156;2023-02-01T13:15:56;2.85;;;1.80;;
4078;SDS011;2054;47.858;11.156;2023-02-01T13:18:24;5.40;;;2.55;;
4078;SDS011;2054;47.858;11.156;2023-02-01T13:20:54;3.45;;;1.90;;
4078;SDS011;2054;47.858;11.156;2023-02-01T13:23:24;2.50;;;1.90;;
4078;SDS011;2054;47.858;11.156;2023-02-01T13:25:54;2.97;;;1.70;;
4078;SDS011;2054;47.858;11.156;2023-02-01T13:28:23;4.10;;;1.90;;
4078;SDS011;2054;47.858;11.156;2023-02-01T13:33:40;2.53;;;1.92;;
4078;SDS011;2054;47.858;11.156;2023-02-01T13:41:53;4.30;;;1.50;;
4078;SDS011;2054;47.858;11.156;2023-02-01T13:44:23;2.53;;;1.80;;
4078;SDS011;2054;47.858;11.156;2023-02-01T13:46:53;3.78;;;1.63;;
4078;SDS011;2054;47.858;11.156;2023-02-01T13:49:22;4.03;;;1.85;;
4078;SDS011;2054;47.858;11.156;2023-02-01T13:51:51;2.33;;;1.58;;
4078;SDS011;2054;47.858;11.156;2023-02-01T13:54:28;5.65;;;2.00;;
4078;SDS011;2054;47.858;11.156;2023-02-01T13:56:57;3.47;;;1.90;;
4078;SDS011;2054;47.858;11.156;2023-02-01T14:05:07;3.63;;;1.85;;
4078;SDS011;2054;47.858;11.156;2023-02-01T14:07:34;3.03;;;2.00;;
4078;SDS011;2054;47.858;11.156;2023-02-01T14:12:46;5.47;;;1.40;;
4078;SDS011;2054;47.858;11.156;2023-02-01T14:15:17;2.88;;;1.60;;
4078;SDS011;2054;47.858;11.156;2023-02-01T14:17:46;3.58;;;1.77;;
4078;SDS011;2054;47.858;11.156;2023-02-01T14:23:21;1.60;;;1.42;;
4078;SDS011;2054;47.858;11.156;2023-02-01T14:28:36;5.88;;;1.88;;
4078;SDS011;2054;47.858;11.156;2023-02-01T14:31:13;2.83;;;2.10;;
4078;SDS011;2054;47.858;11.156;2023-02-01T14:33:41;4.05;;;1.85;;
4078;SDS011;2054;47.858;11.156;2023-02-01T14:36:09;6.80;;;2.22;;
4078;SDS011;2054;47.858;11.156;2023-02-01T14:38:37;3.50;;;2.05;;
4078;SDS011;2054;47.858;11.156;2023-02-01T14:41:13;5.25;;;3.75;;
4078;SDS011;2054;47.858;11.156;2023-02-01T14:43:51;5.15;;;2.63;;
4078;SDS011;2054;47.858;11.156;2023-02-01T14:46:18;6.43;;;3.70;;
4078;SDS011;2054;47.858;11.156;2023-02-01T14:48:45;4.40;;;2.97;;
4078;SDS011;2054;47.858;11.156;2023-02-01T14:51:14;4.70;;;2.33;;
4078;SDS011;2054;47.858;11.156;2023-02-01T14:53:42;4.22;;;2.53;;
4078;SDS011;2054;47.858;11.156;2023-02-01T14:56:12;4.72;;;2.10;;
4078;SDS011;2054;47.858;11.156;2023-02-01T14:58:41;4.13;;;2.00;;
4078;SDS011;2054;47.858;11.156;2023-02-01T15:01:18;3.92;;;2.75;;
4078;SDS011;2054;47.858;11.156;2023-02-01T15:03:47;3.55;;;2.33;;
4078;SDS011;2054;47.858;11.156;2023-02-01T15:06:23;7.35;;;2.08;;
4078;SDS011;2054;47.858;11.156;2023-02-01T15:08:52;3.42;;;2.20;;
4078;SDS011;2054;47.858;11.156;2023-02-01T15:11:20;2.67;;;2.38;;
4078;SDS011;2054;47.858;11.156;2023-02-01T15:13:48;4.85;;;2.35;;
4078;SDS011;2054;47.858;11.156;2023-02-01T15:16:17;3.38;;;2.17;;
4078;SDS011;2054;47.858;11.156;2023-02-01T15:18:44;5.00;;;2.15;;
4078;SDS011;2054;47.858;11.156;2023-02-01T15:21:15;6.25;;;2.95;;
4078;SDS011;2054;47.858;11.156;2023-02-01T15:23:43;4.75;;;2.40;;
4078;SDS011;2054;47.858;11.156;2023-02-01T15:26:23;6.57;;;2.50;;
4078;SDS011;2054;47.858;11.156;2023-02-01T15:28:51;7.70;;;2.17;;
4078;SDS011;2054;47.858;11.156;2023-02-01T15:31:32;2.72;;;2.13;;
4078;SDS011;2054;47.858;11.156;2023-02-01T15:33:59;3.50;;;1.75;;
4078;SDS011;2054;47.858;11.156;2023-02-01T15:36:26;3.13;;;1.75;;
4078;SDS011;2054;47.858;11.156;2023-02-01T15:39:13;2.95;;;1.77;;
4078;SDS011;2054;47.858;11.156;2023-02-01T15:41:43;3.83;;;2.10;;
4078;SDS011;2054;47.858;11.156;2023-02-01T15:44:13;3.60;;;2.00;;
4078;SDS011;2054;47.858;11.156;2023-02-01T15:46:46;4.93;;;1.90;;
4078;SDS011;2054;47.858;11.156;2023-02-01T15:49:19;5.32;;;1.92;;
4078;SDS011;2054;47.858;11.156;2023-02-01T15:51:46;6.40;;;1.88;;
4078;SDS011;2054;47.858;11.156;2023-02-01T15:54:16;5.60;;;2.10;;
4078;SDS011;2054;47.858;11.156;2023-02-01T15:56:46;6.25;;;2.08;;
4078;SDS011;2054;47.858;11.156;2023-02-01T15:59:18;6.43;;;1.75;;
4078;SDS011;2054;47.858;11.156;2023-02-01T16:01:47;7.00;;;2.10;;
4078;SDS011;2054;47.858;11.156;2023-02-01T16:04:17;8.02;;;2.10;;
4078;SDS011;2054;47.858;11.156;2023-02-01T16:06:45;7.88;;;1.85;;
4078;SDS011;2054;47.858;11.156;2023-02-01T16:09:13;7.22;;;2.15;;
4078;SDS011;2054;47.858;11.156;2023-02-01T16:11:41;5.18;;;1.90;;
4078;SDS011;2054;47.858;11.156;2023-02-01T16:14:13;5.80;;;1.90;;
4078;SDS011;2054;47.858;11.156;2023-02-01T16:16:40;5.88;;;1.67;;
4078;SDS011;2054;47.858;11.156;2023-02-01T16:19:09;4.78;;;1.65;;
4078;SDS011;2054;47.858;11.156;2023-02-01T16:21:36;4.88;;;1.88;;
4078;SDS011;2054;47.858;11.156;2023-02-01T16:24:03;4.28;;;1.83;;
4078;SDS011;2054;47.858;11.156;2023-02-01T16:26:31;2.95;;;1.77;;
4078;SDS011;2054;47.858;11.156;2023-02-01T16:28:58;7.32;;;1.65;;
4078;SDS011;2054;47.858;11.156;2023-02-01T16:31:32;4.55;;;1.90;;
4078;SDS011;2054;47.858;11.156;2023-02-01T16:34:00;5.20;;;1.80;;
4078;SDS011;2054;47.858;11.156;2023-02-01T16:36:29;4.22;;;1.65;;
4078;SDS011;2054;47.858;11.156;2023-02-01T16:38:56;4.82;;;1.48;;
4078;SDS011;2054;47.858;11.156;2023-02-01T16:41:24;6.47;;;2.00;;
4078;SDS011;2054;47.858;11.156;2023-02-01T16:43:53;4.45;;;2.00;;
4078;SDS011;2054;47.858;11.156;2023-02-01T16:46:21;3.25;;;1.80;;
4078;SDS011;2054;47.858;11.156;2023-02-01T16:48:51;3.42;;;1.65;;
4078;SDS011;2054;47.858;11.156;2023-02-01T16:51:19;2.38;;;1.50;;
4078;SDS011;2054;47.858;11.156;2023-02-01T16:53:47;8.73;;;2.58;;
4078;SDS011;2054;47.858;11.156;2023-02-01T16:56:15;4.63;;;1.88;;
4078;SDS011;2054;47.858;11.156;2023-02-01T16:58:43;3.13;;;1.63;;
4078;SDS011;2054;47.858;11.156;2023-02-01T17:01:12;4.57;;;1.90;;
4078;SDS011;2054;47.858;11.156;2023-02-01T17:03:39;8.90;;;3.00;;
4078;SDS011;2054;47.858;11.156;2023-02-01T17:06:09;5.32;;;2.33;;
4078;SDS011;2054;47.858;11.156;2023-02-01T17:08:37;3.45;;;1.50;;
4078;SDS011;2054;47.858;11.156;2023-02-01T17:11:07;3.08;;;1.60;;
4078;SDS011;2054;47.858;11.156;2023-02-01T17:13:34;4.93;;;1.80;;
4078;SDS011;2054;47.858;11.156;2023-02-01T17:16:02;3.70;;;1.85;;
4078;SDS011;2054;47.858;11.156;2023-02-01T17:18:31;13.55;;;1.88;;
4078;SDS011;2054;47.858;11.156;2023-02-01T17:20:58;4.13;;;1.85;;
4078;SDS011;2054;47.858;11.156;2023-02-01T17:23:26;4.40;;;1.92;;
4078;SDS011;2054;47.858;11.156;2023-02-01T17:25:54;9.45;;;2.22;;
4078;SDS011;2054;47.858;11.156;2023-02-01T17:28:22;7.05;;;1.90;;
4078;SDS011;2054;47.858;11.156;2023-02-01T17:30:49;3.42;;;1.60;;
4078;SDS011;2054;47.858;11.156;2023-02-01T17:33:19;5.60;;;1.60;;
4078;SDS011;2054;47.858;11.156;2023-02-01T17:35:47;5.68;;;1.70;;
4078;SDS011;2054;47.858;11.156;2023-02-01T17:38:14;7.38;;;1.52;;
4078;SDS011;2054;47.858;11.156;2023-02-01T17:40:41;5.70;;;1.75;;
4078;SDS011;2054;47.858;11.156;2023-02-01T17:43:10;6.82;;;1.58;;
4078;SDS011;2054;47.858;11.156;2023-02-01T17:45:40;9.13;;;2.20;;
4078;SDS011;2054;47.858;11.156;2023-02-01T17:48:11;7.97;;;2.10;;
4078;SDS011;2054;47.858;11.156;2023-02-01T17:50:38;4.10;;;1.40;;
4078;SDS011;2054;47.858;11.156;2023-02-01T17:53:06;7.05;;;1.50;;
4078;SDS011;2054;47.858;11.156;2023-02-01T17:55:35;4.85;;;1.40;;
4078;SDS011;2054;47.858;11.156;2023-02-01T17:58:03;6.05;;;1.38;;
4078;SDS011;2054;47.858;11.156;2023-02-01T18:00:30;2.53;;;1.50;;
4078;SDS011;2054;47.858;11.156;2023-02-01T18:02:58;9.90;;;2.75;;
4078;SDS011;2054;47.858;11.156;2023-02-01T18:05:32;8.52;;;1.90;;
4078;SDS011;2054;47.858;11.156;2023-02-01T18:08:02;1.25;;;0.88;;
4078;SDS011;2054;47.858;11.156;2023-02-01T18:10:29;4.07;;;1.63;;
4078;SDS011;2054;47.858;11.156;2023-02-01T18:12:56;5.78;;;1.90;;
4078;SDS011;2054;47.858;11.156;2023-02-01T18:15:24;4.90;;;1.70;;
4078;SDS011;2054;47.858;11.156;2023-02-01T18:17:52;3.35;;;1.85;;
4078;SDS011;2054;47.858;11.156;2023-02-01T18:20:21;4.90;;;1.15;;
4078;SDS011;2054;47.858;11.156;2023-02-01T18:22:49;6.85;;;1.90;;
4078;SDS011;2054;47.858;11.156;2023-02-01T18:25:17;8.85;;;1.88;;
4078;SDS011;2054;47.858;11.156;2023-02-01T18:27:45;5.78;;;2.03;;
4078;SDS011;2054;47.858;11.156;2023-02-01T18:30:13;5.15;;;2.03;;
4078;SDS011;2054;47.858;11.156;2023-02-01T18:32:41;2.47;;;1.25;;
4078;SDS011;2054;47.858;11.156;2023-02-01T18:35:15;4.43;;;1.50;;
4078;SDS011;2054;47.858;11.156;2023-02-01T18:37:44;3.17;;;1.55;;
4078;SDS011;2054;47.858;11.156;2023-02-01T18:40:12;8.10;;;1.95;;
4078;SDS011;2054;47.858;11.156;2023-02-01T18:42:40;6.43;;;1.58;;
4078;SDS011;2054;47.858;11.156;2023-02-01T18:45:13;5.30;;;1.85;;
4078;SDS011;2054;47.858;11.156;2023-02-01T18:47:46;5.95;;;2.00;;
4078;SDS011;2054;47.858;11.156;2023-02-01T18:50:13;10.52;;;2.70;;
4078;SDS011;2054;47.858;11.156;2023-02-01T18:52:41;4.15;;;1.60;;
4078;SDS011;2054;47.858;11.156;2023-02-01T18:55:09;4.65;;;1.23;;
4078;SDS011;2054;47.858;11.156;2023-02-01T18:57:37;4.30;;;1.70;;
4078;SDS011;2054;47.858;11.156;2023-02-01T19:00:05;6.53;;;2.58;;
4078;SDS011;2054;47.858;11.156;2023-02-01T19:02:32;10.65;;;1.70;;
4078;SDS011;2054;47.858;11.156;2023-02-01T19:04:59;6.53;;;2.15;;
4078;SDS011;2054;47.858;11.156;2023-02-01T19:07:27;4.78;;;1.83;;
4078;SDS011;2054;47.858;11.156;2023-02-01T19:09:54;7.72;;;1.95;;
4078;SDS011;2054;47.858;11.156;2023-02-01T19:12:23;8.18;;;1.88;;
4078;SDS011;2054;47.858;11.156;2023-02-01T19:14:50;6.00;;;1.55;;
4078;SDS011;2054;47.858;11.156;2023-02-01T19:17:18;5.05;;;1.88;;
4078;SDS011;2054;47.858;11.156;2023-02-01T19:19:45;4.78;;;1.90;;
4078;SDS011;2054;47.858;11.156;2023-02-01T19:22:12;8.25;;;1.40;;
4078;SDS011;2054;47.858;11.156;2023-02-01T19:24:40;6.13;;;1.42;;
4078;SDS011;2054;47.858;11.156;2023-02-01T19:27:08;4.10;;;1.98;;